Aérodrome :
LOGIN :

S'inscrire | Disclaimer

   EN    FR    IT 

 










Légende :    VFR   VFR Marginal   IFR   IFR Intensif   IFR Très Intensif
Visi : 
Plafond : 
>= 8 km
>= 3000ft
5 à 8 km
1000 à 3000 ft
1500m à 5 km
500 à 1000 ft
800 à 1500m
200 à 500 ft
< 800m
< 200 ft
Symboles :   Orages  Brouillard  Fortes neiges  Fortes précipitations  Vent > 20 kt
SIGMETs :   Divers  Orages  Givrage  Turbulence  Onde Orograph.  Cendres Volcan.






- Altitude de l'aérodrome : 782 ft
- Code IATA : BGY


LIME - Orio al Serio International - Bergamo

DERNIER METAR :
  • 280450Z VRB01KT 9999 SCT045 BKN060 09/09 Q1014 NOSIG

METARs EXPIRÉS :
  • 280420Z VRB01KT 9999 SCT045 BKN060 09/09 Q1013 NOSIG
  • 280350Z 28003KT 9999 -RA SCT045 BKN080 09/09 Q1013 NOSIG
  • 280320Z VRB01KT 9999 BKN040 09/09 Q1013 NOSIG
  • 280250Z 33002KT 9999 SCT045 OVC080 09/09 Q1012 NOSIG
  • 280220Z 28003KT 9999 BKN040 09/09 Q1012 NOSIG
  • 280150Z 25004KT 9999 SCT045 BKN060 09/09 Q1012 NOSIG
  • 280120Z 18002KT 9999 -DZ SCT045 BKN060 09/09 Q1012 NOSIG
  • 280050Z VRB02KT 9999 -RA SCT045 BKN060 09/09 Q1012 NOSIG
  • 280020Z VRB02KT 9999 -RA SCT045 BKN060 09/09 Q1012 NOSIG

TAF TAF LIME
Valide du 28 à 00h jusqu'au 29 à 00h UTC


272300Z 2800/2824 06005KT 8000 RA BKN045
BECMG 2807/2809 NSW



MET'MAP, la Météo Aéronautique d'un coup d'oeil ! - Copyright ORBIFLY Décembre 2007 - Disclaimer

ORBIFLY MET'MAP TEAM :

Programmation & Développement : Alexandra Zaïnal
Sur une idée originale de : Baudouin d'Aumeries
Soutien technique & logistique : Manuel Goepfert
Assistance : Marc-Olivier Méhu




SOURCES & CREDITS :

   NOAA